Time;durP1;ratioP1;P1;durP2;ratioP2;P2;SDS_P1;SDS_P2;PMS_P1;PMS_P2;Temp;Humidity;BMP_temperature;BMP_pressure;BME280_temperature;BME280_humidity;BME280_pressure;Samples;Min_cycle;Max_cycle;Signal;HPM_P1;HPM_P2
2022/05/19 00:01:58;;;;;;;24.98;5.97;;;;;;;13.13;100.00;100502.28;5125265;27;20141;-85
2022/05/19 00:04:25;;;;;;;22.83;5.97;;;;;;;12.80;100.00;100450.50;5132642;27;20043;-85
2022/05/19 00:06:52;;;;;;;26.33;6.70;;;;;;;12.97;100.00;100460.16;5143782;27;20050;-85
2022/05/19 00:09:20;;;;;;;39.15;8.02;;;;;;;12.80;100.00;100477.66;5154145;27;20046;-85
2022/05/19 00:11:48;;;;;;;27.80;7.20;;;;;;;12.73;100.00;100471.84;5154270;27;20043;-85
2022/05/19 00:14:15;;;;;;;26.65;8.15;;;;;;;13.02;100.00;100482.66;5152148;27;20046;-86
2022/05/19 00:16:42;;;;;;;32.38;7.68;;;;;;;12.38;100.00;100468.38;5135115;27;20047;-85
2022/05/19 00:19:09;;;;;;;29.85;6.25;;;;;;;12.34;100.00;100416.91;5153987;27;20050;-85
2022/05/19 00:21:36;;;;;;;26.92;5.90;;;;;;;12.60;100.00;100412.13;5153005;27;20505;-85
2022/05/19 00:24:04;;;;;;;27.70;8.25;;;;;;;12.22;100.00;100420.19;5154189;27;20043;-85
2022/05/19 00:26:30;;;;;;;29.88;7.80;;;;;;;12.27;100.00;100415.53;5152414;27;20042;-85
2022/05/19 00:28:57;;;;;;;35.15;7.03;;;;;;;12.19;100.00;100400.16;5152759;27;20043;-85
2022/05/19 00:31:26;;;;;;;30.40;7.40;;;;;;;12.17;100.00;100393.31;5153812;27;20050;-86
2022/05/19 00:33:52;;;;;;;30.30;6.57;;;;;;;12.21;100.00;100400.09;5152837;27;20529;-85
2022/05/19 00:36:20;;;;;;;25.13;6.78;;;;;;;12.65;100.00;100413.59;5145581;27;20043;-86
2022/05/19 00:38:47;;;;;;;29.15;6.13;;;;;;;12.48;100.00;100382.09;5132288;27;20059;-86
2022/05/19 00:41:15;;;;;;;29.77;7.70;;;;;;;12.62;100.00;100355.13;5133184;27;20057;-86
2022/05/19 00:43:45;;;;;;;29.95;5.85;;;;;;;12.84;100.00;100384.59;5139823;27;20047;-86
2022/05/19 00:46:41;;;;;;;30.88;6.43;;;;;;;12.74;100.00;100396.50;5152006;27;20065;-86
2022/05/19 00:49:26;;;;;;;31.17;6.80;;;;;;;12.42;100.00;100337.78;5129566;27;20389;-86
2022/05/19 00:52:00;;;;;;;33.17;6.55;;;;;;;12.69;100.00;100393.28;5146877;27;20057;-86
2022/05/19 00:54:29;;;;;;;;;;;;;;;12.51;100.00;100393.28;5131642;27;20077;-86
2022/05/19 00:57:11;;;;;;;29.42;7.35;;;;;;;12.70;100.00;100385.31;5132121;27;19926;-86
2022/05/19 00:59:46;;;;;;;30.40;6.40;;;;;;;12.34;100.00;100352.16;5131013;27;20047;-86
2022/05/19 01:02:16;;;;;;;41.33;7.55;;;;;;;12.66;100.00;100394.28;5130924;27;20062;-86
2022/05/19 01:04:51;;;;;;;31.40;6.82;;;;;;;12.61;100.00;100406.81;5139446;27;20433;-86
2022/05/19 01:07:23;;;;;;;26.67;6.43;;;;;;;12.50;100.00;100375.84;5151980;27;20135;-86
2022/05/19 01:09:52;;;;;;;26.58;7.07;;;;;;;12.51;100.00;100409.03;5152033;27;20042;-85
2022/05/19 01:12:21;;;;;;;26.77;6.85;;;;;;;12.72;100.00;100424.66;5152976;27;20492;-86
2022/05/19 01:14:48;;;;;;;28.92;8.73;;;;;;;12.30;100.00;100403.09;5131463;27;20049;-85
2022/05/19 01:17:15;;;;;;;27.52;7.25;;;;;;;12.31;100.00;100423.19;5147021;27;20046;-85
2022/05/19 01:19:46;;;;;;;27.77;6.90;;;;;;;12.54;100.00;100445.66;5142517;27;20470;-86
2022/05/19 01:22:20;;;;;;;28.38;7.07;;;;;;;12.83;100.00;100453.84;5145165;27;20047;-86
2022/05/19 01:25:05;;;;;;;;;;;;;;;13.01;100.00;100470.41;5153357;27;20039;-86
2022/05/19 01:27:33;;;;;;;19.92;5.95;;;;;;;12.80;100.00;100408.47;5139490;27;19925;-86
2022/05/19 01:30:00;;;;;;;24.77;5.13;;;;;;;13.08;100.00;100447.31;5136507;27;20047;-85
2022/05/19 01:32:30;;;;;;;15.40;5.07;;;;;;;13.22;100.00;100468.44;5135706;27;20043;-85
2022/05/19 01:34:57;;;;;;;24.38;5.20;;;;;;;13.10;100.00;100446.31;5135644;27;20049;-86
2022/05/19 01:37:25;;;;;;;18.63;4.75;;;;;;;13.35;100.00;100459.94;5135328;27;20053;-85
2022/05/19 01:40:14;;;;;;;17.48;3.95;;;;;;;13.42;100.00;100446.41;5148957;27;20414;-85
2022/05/19 01:42:52;;;;;;;17.70;4.93;;;;;;;13.34;100.00;100453.00;5155569;27;20046;-85
2022/05/19 01:45:49;;;;;;;19.40;4.70;;;;;;;13.36;100.00;100430.94;5155465;27;20043;-85
2022/05/19 01:48:32;;;;;;;19.95;3.88;;;;;;;13.58;100.00;100435.91;5137425;27;20134;-86
2022/05/19 01:51:39;;;;;;;13.35;3.90;;;;;;;13.38;100.00;100436.97;5156442;27;20046;-85
2022/05/19 01:54:18;;;;;;;15.43;3.50;;;;;;;13.25;100.00;100455.16;5146276;27;20042;-86
2022/05/19 01:56:50;;;;;;;21.13;4.68;;;;;;;13.13;100.00;100450.53;5145557;27;20061;-86
2022/05/19 01:59:28;;;;;;;11.13;3.13;;;;;;;13.37;100.00;100434.41;5149386;27;20051;-85
2022/05/19 02:02:06;;;;;;;12.13;2.95;;;;;;;13.15;100.00;100403.97;5155807;27;20472;-83
2022/05/19 02:04:47;;;;;;;13.73;3.03;;;;;;;13.20;100.00;100427.41;5138032;27;20096;-83
2022/05/19 02:07:17;;;;;;;13.73;2.75;;;;;;;13.11;100.00;100394.56;5133758;27;20054;-83
2022/05/19 02:09:56;;;;;;;9.63;2.60;;;;;;;13.25;100.00;100423.59;5134423;27;20051;-84
2022/05/19 02:12:24;;;;;;;7.70;2.40;;;;;;;13.22;100.00;100436.06;5134776;27;20403;-84
2022/05/19 02:14:57;;;;;;;8.00;2.60;;;;;;;13.03;100.00;100438.81;5134726;27;20039;-85
2022/05/19 02:17:26;;;;;;;11.77;3.17;;;;;;;12.88;100.00;100427.31;5137899;27;20058;-84
2022/05/19 02:19:58;;;;;;;9.70;2.70;;;;;;;12.93;100.00;100429.72;5134310;27;20047;-84
2022/05/19 02:22:32;;;;;;;11.65;2.28;;;;;;;13.02;100.00;100432.72;5135838;27;20047;-84
2022/05/19 02:25:10;;;;;;;10.02;2.88;;;;;;;13.05;100.00;100442.19;5148081;27;20042;-85
2022/05/19 02:27:47;;;;;;;8.88;3.05;;;;;;;12.80;100.00;100392.72;5136727;27;20075;-84
2022/05/19 02:30:19;;;;;;;12.07;3.30;;;;;;;13.03;100.00;100446.69;5134412;27;20047;-84
2022/05/19 02:32:46;;;;;;;10.75;2.45;;;;;;;13.05;100.00;100422.03;5145159;27;20114;-84
2022/05/19 02:35:13;;;;;;;7.55;2.20;;;;;;;13.02;100.00;100410.84;5135132;27;20040;-86
2022/05/19 02:37:40;;;;;;;8.25;2.50;;;;;;;12.97;100.00;100403.19;5134841;27;20047;-85
2022/05/19 02:40:08;;;;;;;8.65;2.33;;;;;;;12.94;100.00;100426.16;5145425;27;20042;-85
2022/05/19 02:42:35;;;;;;;10.18;2.63;;;;;;;13.18;100.00;100466.06;5154764;27;20515;-86
2022/05/19 02:45:02;;;;;;;9.73;2.25;;;;;;;13.04;100.00;100445.78;5154878;27;20483;-86
2022/05/19 02:47:29;;;;;;;7.80;2.20;;;;;;;12.96;100.00;100482.09;5155377;27;20046;-86
2022/05/19 02:49:55;;;;;;;10.15;2.13;;;;;;;13.12;100.00;100462.00;5153767;27;20051;-87
2022/05/19 02:52:22;;;;;;;7.40;2.05;;;;;;;12.78;100.00;100432.19;5136986;27;20047;-87
2022/05/19 02:54:49;;;;;;;8.27;1.90;;;;;;;12.94;100.00;100455.06;5142181;27;20049;-86
2022/05/19 02:57:15;;;;;;;6.95;2.20;;;;;;;12.98;100.00;100486.38;5155125;27;20057;-87
2022/05/19 02:59:43;;;;;;;8.40;2.10;;;;;;;12.46;100.00;100407.59;5149763;27;20043;-85
2022/05/19 03:02:09;;;;;;;8.35;2.10;;;;;;;12.41;100.00;100422.72;5145700;27;20047;-85
2022/05/19 03:04:37;;;;;;;10.85;2.60;;;;;;;12.33;100.00;100452.84;5156019;27;20464;-85
2022/05/19 03:07:04;;;;;;;10.23;3.05;;;;;;;12.00;100.00;100429.09;5155269;27;20043;-85
2022/05/19 03:09:30;;;;;;;7.78;2.08;;;;;;;12.30;100.00;100445.09;5153940;27;20047;-88
2022/05/19 03:11:57;;;;;;;10.77;2.75;;;;;;;12.17;100.00;100428.28;5154816;27;20459;-88
2022/05/19 03:14:24;;;;;;;10.68;3.13;;;;;;;12.42;100.00;100453.31;5154316;27;20054;-88
2022/05/19 03:16:51;;;;;;;10.77;2.20;;;;;;;12.63;100.00;100461.91;5154488;27;20383;-88
2022/05/19 03:19:18;;;;;;;10.57;2.25;;;;;;;12.50;100.00;100486.16;5155643;27;20053;-88
2022/05/19 03:21:45;;;;;;;8.52;2.50;;;;;;;12.44;100.00;100460.16;5154598;27;20046;-88
2022/05/19 03:24:11;;;;;;;10.43;2.25;;;;;;;12.23;100.00;100440.25;5151284;27;20049;-87
2022/05/19 03:26:38;;;;;;;10.40;2.72;;;;;;;12.07;100.00;100422.59;5142902;27;20052;-88
2022/05/19 03:29:05;;;;;;;10.30;3.17;;;;;;;12.47;100.00;100496.78;5154039;27;20141;-88
2022/05/19 03:31:34;;;;;;;14.88;3.17;;;;;;;12.14;100.00;100494.88;5154081;27;20141;-88
2022/05/19 03:34:02;;;;;;;8.63;2.60;;;;;;;12.24;100.00;100479.53;5153924;27;20058;-88
2022/05/19 03:36:30;;;;;;;11.50;2.30;;;;;;;12.18;100.00;100476.34;5154855;27;20039;-87
2022/05/19 03:38:57;;;;;;;7.47;2.05;;;;;;;12.27;100.00;100489.91;5138156;27;20503;-88
2022/05/19 03:41:23;;;;;;;13.13;2.28;;;;;;;12.49;100.00;100507.22;5150367;27;20134;-87
2022/05/19 03:43:50;;;;;;;8.27;2.28;;;;;;;12.26;100.00;100448.81;5153471;27;20039;-89
2022/05/19 03:46:17;;;;;;;10.40;2.13;;;;;;;12.18;100.00;100478.97;5154475;27;20057;-89
2022/05/19 03:48:44;;;;;;;10.80;2.42;;;;;;;12.00;100.00;100454.47;5152165;27;20042;-86
2022/05/19 03:51:22;;;;;;;10.15;2.10;;;;;;;12.09;100.00;100472.41;5152382;27;20141;-89
2022/05/19 03:53:50;;;;;;;6.53;2.03;;;;;;;12.25;100.00;100477.75;5154313;27;20074;-88
2022/05/19 03:56:22;;;;;;;8.90;1.80;;;;;;;12.47;100.00;100488.91;5152754;27;20053;-87
2022/05/19 03:58:50;;;;;;;7.40;1.98;;;;;;;12.24;100.00;100458.53;5152915;27;20137;-87
2022/05/19 04:01:19;;;;;;;7.13;1.92;;;;;;;12.47;100.00;100481.03;5147795;27;20469;-86
2022/05/19 04:03:46;;;;;;;12.25;2.92;;;;;;;12.00;100.00;100425.63;5151830;27;20134;-87
2022/05/19 04:06:14;;;;;;;8.38;2.05;;;;;;;12.46;100.00;100505.59;5133647;27;20544;-86
2022/05/19 04:08:40;;;;;;;10.25;2.67;;;;;;;12.26;100.00;100509.19;5132890;27;20059;-87
2022/05/19 04:11:07;;;;;;;8.68;2.22;;;;;;;12.24;100.00;100504.94;5138586;27;20480;-86
2022/05/19 04:13:34;;;;;;;11.18;2.20;;;;;;;12.11;100.00;100488.91;5153114;27;20046;-86
2022/05/19 04:16:01;;;;;;;10.95;2.80;;;;;;;12.10;100.00;100497.72;5148152;27;20468;-86
2022/05/19 04:18:34;;;;;;;6.57;2.03;;;;;;;12.21;100.00;100486.72;5147367;27;20053;-86
2022/05/19 04:21:00;;;;;;;14.23;2.58;;;;;;;12.10;100.00;100495.94;5154009;27;20283;-85
2022/05/19 04:23:27;;;;;;;10.07;2.63;;;;;;;12.25;100.00;100507.50;5152884;27;20057;-85
2022/05/19 04:25:54;;;;;;;10.55;2.42;;;;;;;12.39;100.00;100530.44;5153335;27;20061;-84
2022/05/19 04:28:21;;;;;;;11.93;2.53;;;;;;;12.95;100.00;100560.09;5152384;27;20068;-85
2022/05/19 04:30:48;;;;;;;11.60;2.85;;;;;;;13.60;100.00;100551.56;5151815;27;20052;-84
2022/05/19 04:33:15;;;;;;;11.02;2.05;;;;;;;14.16;100.00;100538.84;5145497;27;20130;-84
2022/05/19 04:35:41;;;;;;;15.15;2.92;;;;;;;14.18;100.00;100547.50;5131251;27;20055;-85
2022/05/19 04:38:13;;;;;;;7.75;1.90;;;;;;;15.04;100.00;100558.44;5133380;27;20415;-85
2022/05/19 04:40:42;;;;;;;6.90;2.00;;;;;;;15.33;100.00;100584.84;5131937;27;20066;-85
2022/05/19 04:43:11;;;;;;;9.50;2.05;;;;;;;15.04;100.00;100589.25;5132693;27;20083;-85
2022/05/19 04:45:38;;;;;;;8.20;1.70;;;;;;;14.63;100.00;100585.41;5132696;27;20047;-85
2022/05/19 04:48:05;;;;;;;6.40;1.63;;;;;;;14.34;100.00;100593.16;5131694;27;20047;-85
2022/05/19 04:50:32;;;;;;;7.63;1.60;;;;;;;13.90;100.00;100583.28;5131577;27;20500;-84
2022/05/19 04:52:59;;;;;;;7.28;1.60;;;;;;;13.83;100.00;100581.91;5131277;27;20051;-84
2022/05/19 04:55:27;;;;;;;7.82;1.73;;;;;;;13.62;100.00;100591.78;5131130;27;20043;-85
2022/05/19 04:57:54;;;;;;;9.68;1.67;;;;;;;13.76;100.00;100593.69;5151501;27;20403;-85
2022/05/19 05:00:21;;;;;;;6.45;2.15;;;;;;;13.32;100.00;100546.91;5150719;27;20412;-85
2022/05/19 05:02:48;;;;;;;9.60;1.92;;;;;;;13.42;100.00;100575.25;5149180;27;20058;-85
2022/05/19 05:05:16;;;;;;;6.78;1.65;;;;;;;13.34;100.00;100547.66;5133182;27;20465;-85
2022/05/19 05:07:42;;;;;;;8.70;2.38;;;;;;;13.61;100.00;100601.44;5150954;27;20057;-85
2022/05/19 05:10:09;;;;;;;6.35;2.10;;;;;;;13.57;100.00;100586.75;5153322;27;20498;-85
2022/05/19 05:12:36;;;;;;;10.57;2.00;;;;;;;13.42;100.00;100591.03;5152080;27;20407;-85
2022/05/19 05:15:04;;;;;;;9.52;2.03;;;;;;;13.56;100.00;100602.59;5152067;27;20047;-86
2022/05/19 05:17:31;;;;;;;8.05;2.08;;;;;;;13.42;100.00;100598.94;5151722;27;20050;-86
2022/05/19 05:19:57;;;;;;;10.32;2.63;;;;;;;13.54;100.00;100570.28;5153063;27;20061;-86
2022/05/19 05:22:24;;;;;;;7.68;2.22;;;;;;;13.65;100.00;100571.41;5144665;27;20049;-86
2022/05/19 05:24:51;;;;;;;7.57;1.83;;;;;;;13.57;100.00;100576.22;5142335;27;20043;-86
2022/05/19 05:27:18;;;;;;;8.82;1.90;;;;;;;13.63;100.00;100596.97;5146381;27;20047;-86
2022/05/19 05:29:44;;;;;;;13.82;2.80;;;;;;;13.45;100.00;100585.59;5151438;27;20046;-86
2022/05/19 05:32:11;;;;;;;14.20;2.42;;;;;;;13.78;100.00;100604.97;5151254;27;20408;-85
2022/05/19 05:34:38;;;;;;;6.90;1.80;;;;;;;13.63;100.00;100591.72;5144896;27;20053;-86
2022/05/19 05:37:06;;;;;;;6.28;1.55;;;;;;;13.72;100.00;100592.97;5143745;27;20050;-86
2022/05/19 05:39:33;;;;;;;9.98;2.47;;;;;;;13.39;100.00;100566.69;5149388;27;20461;-86
2022/05/19 05:42:02;;;;;;;6.97;2.13;;;;;;;13.66;100.00;100583.63;5145937;27;20055;-86
2022/05/19 05:44:32;;;;;;;12.57;2.75;;;;;;;13.41;100.00;100615.63;5131619;27;20702;-85
2022/05/19 05:47:00;;;;;;;13.55;2.55;;;;;;;13.47;100.00;100620.59;5145427;27;20054;-86
2022/05/19 05:49:27;;;;;;;9.77;2.10;;;;;;;13.84;100.00;100610.75;5136478;27;20069;-86
2022/05/19 05:51:54;;;;;;;14.02;2.50;;;;;;;14.08;100.00;100620.03;5144899;27;20538;-85
2022/05/19 05:54:21;;;;;;;9.90;2.58;;;;;;;13.98;100.00;100641.59;5142686;27;20043;-86
2022/05/19 05:56:53;;;;;;;13.98;1.90;;;;;;;15.12;100.00;100632.69;5145280;27;20046;-86
2022/05/19 05:59:20;;;;;;;11.73;2.45;;;;;;;15.93;100.00;100589.16;5131299;27;20047;-86
2022/05/19 06:01:47;;;;;;;10.93;2.78;;;;;;;16.57;100.00;100625.66;5140395;27;20047;-85
2022/05/19 06:04:15;;;;;;;7.10;1.88;;;;;;;17.07;100.00;100600.38;5151759;27;20142;-84
2022/05/19 06:06:46;;;;;;;8.48;1.90;;;;;;;16.66;100.00;100612.69;5139239;27;20130;-87
2022/05/19 06:09:13;;;;;;;10.52;2.15;;;;;;;17.46;100.00;100625.91;5142326;27;20385;-85
2022/05/19 06:11:41;;;;;;;6.95;1.77;;;;;;;17.79;100.00;100591.91;5138062;27;20069;-86
2022/05/19 06:14:08;;;;;;;9.77;1.70;;;;;;;17.95;100.00;100594.38;5155944;27;20057;-85
2022/05/19 06:16:35;;;;;;;10.48;2.00;;;;;;;18.05;100.00;100586.63;5145041;27;20403;-90
2022/05/19 06:19:03;;;;;;;9.48;1.70;;;;;;;17.75;100.00;100620.41;5147205;27;20039;-89
2022/05/19 06:21:29;;;;;;;10.25;2.17;;;;;;;18.54;100.00;100636.09;5149049;27;20043;-89
2022/05/19 06:23:56;;;;;;;6.22;1.60;;;;;;;18.73;100.00;100607.28;5145681;27;20042;-89
2022/05/19 06:26:23;;;;;;;8.15;1.80;;;;;;;19.51;100.00;100640.38;5145267;27;20041;-88
2022/05/19 06:28:59;;;;;;;7.47;1.83;;;;;;;19.02;100.00;100656.50;5143214;27;20130;-90
2022/05/19 06:31:27;;;;;;;11.43;1.90;;;;;;;19.23;100.00;100660.19;5132276;27;20448;-89
2022/05/19 06:33:53;;;;;;;11.23;2.50;;;;;;;17.86;100.00;100658.59;5145179;27;20129;-90
2022/05/19 06:36:20;;;;;;;8.30;1.73;;;;;;;18.79;100.00;100656.38;5149774;27;20042;-89
2022/05/19 06:38:47;;;;;;;10.32;2.33;;;;;;;18.23;100.00;100624.19;5140025;27;20055;-89
2022/05/19 06:43:59;;;;;;;10.00;1.77;;;;;;;18.46;100.00;100659.66;5148836;27;20047;-90
2022/05/19 06:46:26;;;;;;;6.68;1.70;;;;;;;19.22;100.00;100650.53;5149519;27;20039;-91
2022/05/19 06:48:53;;;;;;;8.35;1.92;;;;;;;19.30;100.00;100656.13;5155187;27;20053;-89
2022/05/19 06:51:20;;;;;;;6.78;1.50;;;;;;;19.28;100.00;100604.09;5155811;27;20043;-90
2022/05/19 06:53:49;;;;;;;8.63;1.52;;;;;;;19.52;100.00;100610.19;5153851;27;20099;-90
2022/05/19 06:56:15;;;;;;;8.93;1.50;;;;;;;18.85;100.00;100649.78;5146186;27;20049;-89
2022/05/19 06:58:42;;;;;;;8.45;1.60;;;;;;;18.87;100.00;100635.44;5154682;27;20399;-89
2022/05/19 07:01:09;;;;;;;10.18;1.80;;;;;;;19.14;100.00;100671.47;5154364;27;20051;-89
2022/05/19 07:03:36;;;;;;;9.60;1.92;;;;;;;18.79;100.00;100635.13;5154685;27;20126;-89
2022/05/19 07:06:03;;;;;;;7.97;1.70;;;;;;;18.76;100.00;100654.75;5150327;27;20043;-89
2022/05/19 07:08:29;;;;;;;10.40;2.30;;;;;;;18.81;100.00;100633.22;5133931;27;20374;-88
2022/05/19 07:10:56;;;;;;;7.32;1.67;;;;;;;19.13;100.00;100670.66;5143127;27;20393;-89
2022/05/19 07:13:24;;;;;;;7.57;1.73;;;;;;;18.21;100.00;100634.91;5148895;27;20046;-89
2022/05/19 07:15:50;;;;;;;5.88;1.40;;;;;;;19.30;100.00;100692.41;5144538;27;20066;-89
2022/05/19 07:18:17;;;;;;;6.80;1.48;;;;;;;18.81;100.00;100662.41;5144502;27;20450;-89
2022/05/19 07:20:44;;;;;;;8.07;1.50;;;;;;;18.50;100.00;100656.69;5137290;27;20053;-89
2022/05/19 07:23:18;;;;;;;7.25;1.45;;;;;;;18.83;100.00;100672.94;5145226;27;20053;-89
2022/05/19 07:25:46;;;;;;;7.15;1.40;;;;;;;19.44;98.38;100675.44;5135727;27;20047;-89
2022/05/19 07:28:14;;;;;;;7.93;1.75;;;;;;;19.56;99.29;100661.25;5134422;27;20053;-89
2022/05/19 07:30:44;;;;;;;6.35;1.60;;;;;;;19.53;96.91;100678.25;5150217;27;20082;-89
2022/05/19 07:33:11;;;;;;;7.03;1.45;;;;;;;19.69;93.71;100679.75;5146512;27;20424;-89
2022/05/19 07:35:40;;;;;;;8.85;1.70;;;;;;;19.75;90.43;100665.19;5153184;27;20043;-90
2022/05/19 07:38:07;;;;;;;5.28;1.25;;;;;;;18.80;92.58;100639.47;5150788;27;20428;-89
2022/05/19 07:40:34;;;;;;;6.97;1.48;;;;;;;19.79;90.70;100645.38;5149353;27;20039;-89
2022/05/19 07:45:46;;;;;;;7.57;1.60;;;;;;;19.79;86.44;100661.31;5152345;27;20486;-89
2022/05/19 07:48:13;;;;;;;8.45;1.77;;;;;;;20.01;83.93;100682.59;5145993;27;20047;-89
2022/05/19 07:50:40;;;;;;;4.60;1.13;;;;;;;20.41;86.08;100699.84;5136158;27;20050;-89
2022/05/19 07:53:06;;;;;;;6.07;1.20;;;;;;;20.23;85.83;100670.28;5138270;27;20055;-89
2022/05/19 07:55:33;;;;;;;8.18;1.60;;;;;;;20.00;80.51;100650.81;5148362;27;20042;-90
2022/05/19 07:58:00;;;;;;;6.65;1.33;;;;;;;20.15;78.36;100692.16;5155104;27;20079;-90
2022/05/19 08:00:27;;;;;;;9.27;1.60;;;;;;;20.11;75.57;100688.03;5154792;27;20054;-89
2022/05/19 08:02:53;;;;;;;9.43;1.23;;;;;;;20.03;77.60;100687.78;5150061;27;20057;-89
2022/05/19 08:05:20;;;;;;;7.75;1.20;;;;;;;20.58;72.92;100710.00;5140016;27;20039;-90
2022/05/19 08:07:47;;;;;;;7.80;1.48;;;;;;;20.23;73.18;100678.25;5152411;27;20053;-90
2022/05/19 08:10:20;;;;;;;8.48;1.70;;;;;;;20.34;73.47;100711.94;5152187;27;20043;-89
2022/05/19 08:15:35;;;;;;;9.45;1.85;;;;;;;19.78;74.16;100648.97;5153787;27;20056;-89
2022/05/19 08:18:12;;;;;;;7.57;1.40;;;;;;;20.63;72.62;100707.00;5143317;27;20047;-89
2022/05/19 08:20:53;;;;;;;8.13;1.38;;;;;;;21.23;73.13;100675.50;5136905;27;20765;-90
2022/05/19 08:23:23;;;;;;;7.65;1.65;;;;;;;20.42;74.53;100656.34;5144411;27;20059;-89
2022/05/19 08:25:50;;;;;;;6.68;1.88;;;;;;;20.96;70.78;100687.44;5142006;27;20122;-89
2022/05/19 08:28:18;;;;;;;9.30;1.35;;;;;;;21.18;68.46;100691.00;5156541;27;20050;-89
2022/05/19 08:30:48;;;;;;;6.60;1.63;;;;;;;20.79;67.92;100693.31;5137336;27;20400;-86
2022/05/19 08:33:17;;;;;;;9.40;1.40;;;;;;;21.50;65.90;100699.00;5153161;27;20050;-87
2022/05/19 08:35:44;;;;;;;7.45;1.58;;;;;;;21.44;65.66;100704.78;5146387;27;20043;-86
2022/05/19 08:38:11;;;;;;;6.47;1.27;;;;;;;21.38;63.05;100676.84;5137903;27;20138;-89
2022/05/19 08:40:44;;;;;;;6.18;1.40;;;;;;;21.30;62.84;100721.06;5139597;27;20050;-88
2022/05/19 08:43:16;;;;;;;6.28;1.33;;;;;;;20.80;60.29;100711.78;5149324;27;20134;-88
2022/05/19 08:45:48;;;;;;;5.75;1.30;;;;;;;21.27;60.96;100708.03;5155212;27;20042;-88
2022/05/19 08:48:19;;;;;;;6.25;1.50;;;;;;;20.94;62.84;100707.16;5140049;27;20058;-89
2022/05/19 08:50:52;;;;;;;5.75;1.25;;;;;;;21.26;60.26;100722.31;5143585;27;20134;-88
2022/05/19 08:53:19;;;;;;;7.80;1.42;;;;;;;21.35;60.92;100727.69;5143508;27;20051;-90
2022/05/19 08:55:52;;;;;;;5.28;1.20;;;;;;;21.69;61.00;100732.91;5143992;27;20069;-89
2022/05/19 08:58:34;;;;;;;5.55;1.40;;;;;;;21.01;60.00;100757.09;5142098;27;20051;-88
2022/05/19 09:01:10;;;;;;;5.68;1.70;;;;;;;21.26;58.20;100736.47;5144329;27;20047;-88
2022/05/19 09:04:26;;;;;;;6.70;1.48;;;;;;;21.10;59.65;100754.69;5142522;27;20436;-89
2022/05/19 09:10:27;;;;;;;6.65;1.55;;;;;;;21.31;59.53;100757.41;5133332;27;20047;-89
2022/05/19 09:13:20;;;;;;;7.60;1.35;;;;;;;21.24;57.51;100759.72;5141754;27;20096;-88
2022/05/19 09:15:47;;;;;;;6.15;1.25;;;;;;;22.30;55.48;100781.97;5133658;27;20050;-88
2022/05/19 09:18:20;;;;;;;6.75;1.40;;;;;;;22.18;57.63;100776.69;5151766;27;20094;-89
2022/05/19 09:20:53;;;;;;;12.15;1.85;;;;;;;20.85;59.14;100730.06;5135097;27;20057;-88
2022/05/19 09:23:23;;;;;;;7.00;1.50;;;;;;;20.73;61.55;100779.78;5136090;27;20047;-89
2022/05/19 09:25:57;;;;;;;9.80;1.90;;;;;;;20.41;60.59;100793.75;5134399;27;20400;-89
2022/05/19 09:28:24;;;;;;;4.95;1.30;;;;;;;21.06;60.00;100746.09;5151836;27;20046;-88
2022/05/19 09:30:54;;;;;;;5.25;1.40;;;;;;;21.30;56.74;100788.50;5132224;27;20047;-89
2022/05/19 09:33:29;;;;;;;11.07;1.95;;;;;;;21.24;51.88;100751.72;5146009;27;20108;-89
2022/05/19 09:36:00;;;;;;;3.83;1.02;;;;;;;21.26;50.04;100776.41;5147081;27;20053;-89
2022/05/19 09:38:54;;;;;;;4.85;1.30;;;;;;;21.14;49.94;100770.28;5134206;27;20403;-88
2022/05/19 09:41:39;;;;;;;6.15;1.25;;;;;;;20.96;48.82;100769.09;5142593;27;20110;-88
2022/05/19 09:44:11;;;;;;;7.28;1.35;;;;;;;21.75;49.73;100734.22;5150964;27;20765;-88
2022/05/19 09:46:47;;;;;;;3.58;1.00;;;;;;;21.98;48.10;100769.56;5142882;27;20049;-89
2022/05/19 09:49:30;;;;;;;5.55;1.17;;;;;;;21.67;49.65;100774.81;5143352;27;20070;-89
2022/05/19 09:52:03;;;;;;;3.20;0.90;;;;;;;21.75;48.54;100763.53;5156332;27;20047;-88
2022/05/19 09:54:32;;;;;;;4.45;1.10;;;;;;;21.53;48.14;100768.00;5146356;27;20126;-86
2022/05/19 09:57:10;;;;;;;9.50;1.85;;;;;;;21.80;49.65;100756.00;5133704;27;20050;-85
2022/05/19 09:59:48;;;;;;;3.92;1.30;;;;;;;21.81;48.11;100763.00;5144361;27;20051;-86
2022/05/19 10:02:29;;;;;;;4.72;1.23;;;;;;;22.24;46.26;100771.81;5147697;27;20049;-85
2022/05/19 10:05:47;;;;;;;4.50;1.10;;;;;;;21.89;47.11;100747.22;5134396;27;20050;-86
2022/05/19 10:08:23;;;;;;;4.30;1.23;;;;;;;21.40;46.38;100745.97;5141372;27;20043;-86
2022/05/19 10:11:12;;;;;;;3.70;1.13;;;;;;;21.84;48.30;100764.56;5155243;27;20065;-86
2022/05/19 10:13:54;;;;;;;4.85;1.05;;;;;;;21.70;47.39;100753.25;5155020;27;20408;-87
2022/05/19 10:16:37;;;;;;;4.50;1.00;;;;;;;22.01;46.68;100750.66;5147564;27;20122;-86
2022/05/19 10:19:41;;;;;;;6.88;1.30;;;;;;;22.23;48.44;100762.97;5139850;27;20130;-86
2022/05/19 10:22:29;;;;;;;5.03;1.00;;;;;;;22.01;47.40;100729.31;5154526;27;20399;-87
2022/05/19 10:25:27;;;;;;;6.55;1.13;;;;;;;21.99;45.26;100774.78;5155189;27;20640;-86
2022/05/19 10:31:27;;;;;;;5.57;1.23;;;;;;;21.67;44.43;100788.13;5135521;27;20147;-87
2022/05/19 10:33:57;;;;;;;7.65;1.17;;;;;;;21.93;44.94;100774.44;5146707;27;20043;-87
2022/05/19 10:36:43;;;;;;;6.13;1.17;;;;;;;22.25;43.37;100782.34;5146867;27;20161;-87
2022/05/19 10:39:35;;;;;;;8.38;1.60;;;;;;;21.55;43.34;100779.38;5142640;27;20054;-87
2022/05/19 10:42:24;;;;;;;8.40;1.50;;;;;;;21.75;42.99;100777.69;5141590;27;20388;-86
2022/05/19 10:45:00;;;;;;;6.57;1.23;;;;;;;21.80;41.61;100753.31;5133616;27;20078;-86
2022/05/19 10:47:57;;;;;;;6.88;1.85;;;;;;;22.39;42.28;100791.84;5143284;27;20404;-86
2022/05/19 10:50:29;;;;;;;6.45;1.20;;;;;;;21.85;41.72;100783.09;5148468;27;20691;-86
2022/05/19 10:53:03;;;;;;;4.85;1.00;;;;;;;22.30;42.55;100737.47;5142598;27;20492;-86
2022/05/19 10:55:54;;;;;;;6.28;1.42;;;;;;;22.57;41.90;100781.41;5140572;27;20061;-87
2022/05/19 10:58:28;;;;;;;5.93;1.25;;;;;;;21.55;44.21;100738.56;5154682;27;20404;-87
2022/05/19 11:01:31;;;;;;;5.13;1.30;;;;;;;22.73;42.99;100772.88;5137075;27;20038;-86
2022/05/19 11:04:25;;;;;;;6.43;1.13;;;;;;;22.61;43.32;100789.97;5153392;27;20460;-87
2022/05/19 11:07:15;;;;;;;5.35;1.38;;;;;;;22.83;43.00;100773.75;5142851;27;20480;-86
2022/05/19 11:09:57;;;;;;;4.68;1.20;;;;;;;22.30;42.07;100773.97;5151389;27;20502;-87
2022/05/19 11:12:50;;;;;;;4.72;1.20;;;;;;;22.25;43.28;100805.50;5154128;27;20082;-87
2022/05/19 11:16:02;;;;;;;5.63;1.48;;;;;;;22.10;43.71;100807.69;5153744;27;20042;-89
2022/05/19 11:18:56;;;;;;;4.85;1.20;;;;;;;21.91;42.31;100758.56;5134109;27;20399;-87
2022/05/19 11:21:57;;;;;;;6.07;1.40;;;;;;;21.88;44.28;100796.13;5155328;27;20089;-87
2022/05/19 11:24:32;;;;;;;4.63;0.90;;;;;;;22.68;43.88;100793.78;5150846;27;20061;-86
2022/05/19 11:27:12;;;;;;;8.60;1.20;;;;;;;23.30;41.76;100784.72;5144863;27;20430;-88
2022/05/19 11:29:42;;;;;;;4.40;1.60;;;;;;;23.37;41.21;100802.84;5151998;27;20069;-88
2022/05/19 11:32:15;;;;;;;5.53;1.20;;;;;;;23.17;43.33;100759.25;5153367;27;20447;-87
2022/05/19 11:34:46;;;;;;;6.50;1.30;;;;;;;23.39;40.65;100800.88;5148805;27;20534;-87
2022/05/19 11:37:38;;;;;;;5.07;1.10;;;;;;;22.50;42.75;100782.91;5137708;27;20747;-87
2022/05/19 11:40:20;;;;;;;8.25;1.27;;;;;;;23.00;42.11;100796.28;5147696;27;20130;-86
2022/05/19 11:43:03;;;;;;;6.57;1.30;;;;;;;23.37;41.20;100790.31;5153968;27;20053;-87
2022/05/19 11:45:30;;;;;;;;;;;;;;;22.69;42.46;100800.81;5153704;27;20055;-87
2022/05/19 11:56:48;;;;;;;6.88;1.20;;;;;;;22.81;42.98;100746.38;5152861;27;20053;-89
2022/05/19 11:59:15;;;;;;;5.97;1.25;;;;;;;22.27;42.76;100720.91;5146380;27;20047;-88
2022/05/19 12:01:48;;;;;;;6.63;1.50;;;;;;;22.83;43.36;100779.09;5144121;27;20407;-88
2022/05/19 12:04:21;;;;;;;7.28;1.45;;;;;;;22.43;42.84;100776.41;5153880;27;20047;-88